Time;durP1;ratioP1;P1;durP2;ratioP2;P2;SDS_P1;SDS_P2;PMS_P1;PMS_P2;Temp;Humidity;BMP_temperature;BMP_pressure;BME280_temperature;BME280_humidity;BME280_pressure;Samples;Min_cycle;Max_cycle;Signal;HPM_P1;HPM_P2
2021/12/21 00:01:29;;;;;;;6.00;3.72;;;;;;;0.60;78.44;99841.07;1744637;82;20968;-75
2021/12/21 00:03:55;;;;;;;4.70;4.03;;;;;;;0.53;78.19;99839.13;1744929;82;20904;-76
2021/12/21 00:06:22;;;;;;;7.03;3.98;;;;;;;0.46;78.10;99845.83;1744490;82;20940;-76
2021/12/21 00:08:49;;;;;;;6.90;4.55;;;;;;;0.40;78.11;99835.25;1744920;82;22262;-75
2021/12/21 00:11:16;;;;;;;7.42;4.20;;;;;;;0.38;78.28;99835.31;1744614;81;21497;-75
2021/12/21 00:16:41;;;;;;;8.30;5.28;;;;;;;0.34;78.53;99842.74;1744610;82;21465;-75
2021/12/21 00:21:34;;;;;;;10.75;6.97;;;;;;;0.29;78.78;99836.02;1704146;81;20905;-74
2021/12/21 00:23:51;;;;;;;11.33;7.65;;;;;;;0.30;78.84;99837.27;1742332;81;21137;-75
2021/12/21 00:26:21;;;;;;;10.98;7.03;;;;;;;0.32;78.87;99844.52;1744502;81;21012;-75
2021/12/21 00:28:56;;;;;;;11.15;7.65;;;;;;;0.34;78.90;99836.75;1744837;81;20897;-75
2021/12/21 00:31:18;;;;;;;14.35;8.78;;;;;;;0.35;79.01;99837.13;1708097;82;20978;-76
2021/12/21 00:33:47;;;;;;;12.63;7.72;;;;;;;0.36;79.11;99838.38;1709089;84;20928;-73
2021/12/21 00:36:18;;;;;;;12.18;7.40;;;;;;;0.38;78.94;99834.02;1708867;82;21142;-74
2021/12/21 00:38:46;;;;;;;12.43;8.28;;;;;;;0.31;78.81;99835.11;1709006;84;20840;-75
2021/12/21 00:41:13;;;;;;;13.93;8.23;;;;;;;0.27;78.89;99836.52;1708750;84;20896;-74
2021/12/21 00:43:40;;;;;;;19.27;9.68;;;;;;;0.21;78.93;99833.69;1708639;84;21428;-74
2021/12/21 00:46:07;;;;;;;11.50;7.30;;;;;;;0.19;79.31;99832.44;1708684;84;20951;-74
2021/12/21 00:48:36;;;;;;;6.62;5.85;;;;;;;0.24;79.62;99836.62;1708697;84;21955;-74
2021/12/21 00:51:06;;;;;;;7.42;5.55;;;;;;;0.29;79.79;99839.47;1708621;82;20896;-74
2021/12/21 00:53:36;;;;;;;6.28;4.85;;;;;;;0.37;79.91;99845.67;1708672;84;20951;-75
2021/12/21 00:56:03;;;;;;;4.53;3.27;;;;;;;0.43;79.73;99849.81;1708763;82;20979;-74
2021/12/21 00:58:30;;;;;;;4.33;3.60;;;;;;;0.44;79.55;99852.77;1708907;84;20860;-73
2021/12/21 01:00:57;;;;;;;6.80;4.90;;;;;;;0.43;79.26;99858.38;1708770;84;21124;-74
2021/12/21 01:03:25;;;;;;;4.33;3.52;;;;;;;0.39;79.26;99861.48;1708684;84;20896;-74
2021/12/21 01:06:07;;;;;;;4.33;3.92;;;;;;;0.35;79.26;99857.31;1708821;82;20947;-74
2021/12/21 01:08:30;;;;;;;3.15;2.92;;;;;;;0.34;79.33;99868.98;1707210;82;20889;-74
2021/12/21 01:11:16;;;;;;;3.90;3.50;;;;;;;0.29;79.46;99870.41;1708690;83;21418;-75
2021/12/21 01:14:02;;;;;;;3.55;3.25;;;;;;;0.26;79.48;99869.20;1707950;83;21199;-74
2021/12/21 01:21:25;;;;;;;7.70;5.12;;;;;;;0.08;79.63;99876.19;1708637;84;20992;-73
2021/12/21 01:29:20;;;;;;;8.68;6.75;;;;;;;0.08;80.67;99874.90;1716302;83;21393;-74
2021/12/21 01:31:46;;;;;;;9.88;7.25;;;;;;;0.07;80.76;99867.62;1713527;83;20987;-73
2021/12/21 01:34:22;;;;;;;8.68;7.35;;;;;;;0.06;80.81;99868.48;1714316;83;21042;-73
2021/12/21 01:36:48;;;;;;;9.78;6.35;;;;;;;0.09;80.81;99876.58;1714259;82;20982;-73
2021/12/21 01:39:48;;;;;;;6.45;5.67;;;;;;;0.05;80.38;99879.70;1715257;83;20982;-74
2021/12/21 01:42:01;;;;;;;6.90;4.53;;;;;;;-0.04;80.10;99879.52;1712306;83;21497;-73
2021/12/21 01:49:50;;;;;;;6.95;4.65;;;;;;;-0.26;80.05;99875.86;1716623;83;21069;-73
2021/12/21 01:52:24;;;;;;;5.85;4.30;;;;;;;-0.26;79.86;99873.28;1717009;83;21619;-74
2021/12/21 01:54:51;;;;;;;5.35;3.98;;;;;;;-0.26;79.79;99877.15;1716857;83;20935;-74
2021/12/21 01:57:18;;;;;;;5.35;3.75;;;;;;;-0.28;79.50;99880.20;1719812;82;20861;-73
2021/12/21 01:59:45;;;;;;;5.15;4.33;;;;;;;-0.31;79.22;99881.56;1719289;83;20939;-73
2021/12/21 02:02:15;;;;;;;5.70;4.37;;;;;;;-0.37;79.07;99881.30;1716951;83;20931;-73
2021/12/21 02:04:45;;;;;;;5.40;4.42;;;;;;;-0.43;79.03;99888.73;1716407;83;21178;-73
2021/12/21 02:07:12;;;;;;;7.03;4.95;;;;;;;-0.43;79.47;99887.90;1716419;82;20904;-74
2021/12/21 02:09:39;;;;;;;10.08;5.45;;;;;;;-0.38;79.38;99891.64;1716416;83;21421;-74
2021/12/21 02:12:17;;;;;;;4.95;4.47;;;;;;;-0.39;79.14;99896.40;1716480;83;20900;-73
2021/12/21 02:14:52;;;;;;;6.20;3.58;;;;;;;-0.40;79.08;99898.56;1716546;82;20896;-73
2021/12/21 02:22:44;;;;;;;7.58;4.70;;;;;;;-0.44;78.95;99910.24;1714387;82;20983;-73
2021/12/21 02:25:34;;;;;;;5.10;4.12;;;;;;;-0.47;78.87;99911.63;1715648;83;20900;-72
2021/12/21 02:27:54;;;;;;;4.72;3.60;;;;;;;-0.48;78.86;99916.80;1705712;82;20880;-73
2021/12/21 02:30:15;;;;;;;5.55;5.03;;;;;;;-0.49;78.90;99923.69;1706985;83;21855;-72
2021/12/21 02:32:42;;;;;;;6.22;5.55;;;;;;;-0.50;78.63;99919.86;1708773;84;20940;-73
2021/12/21 02:35:09;;;;;;;5.45;3.87;;;;;;;-0.57;78.39;99915.75;1708873;84;21007;-72
2021/12/21 02:37:36;;;;;;;5.22;3.83;;;;;;;-0.64;78.37;99918.93;1708796;84;20932;-72
2021/12/21 02:40:05;;;;;;;4.75;4.35;;;;;;;-0.66;78.09;99928.42;1708872;82;20924;-73
2021/12/21 02:42:33;;;;;;;6.17;4.03;;;;;;;-0.72;77.89;99934.55;1708912;84;21148;-73
2021/12/21 02:45:00;;;;;;;5.10;3.42;;;;;;;-0.72;77.98;99931.98;1708795;84;20900;-74
2021/12/21 02:47:27;;;;;;;6.50;3.15;;;;;;;-0.73;77.79;99935.45;1708734;84;20852;-73
2021/12/21 02:49:54;;;;;;;4.53;2.70;;;;;;;-0.72;77.25;99936.29;1708784;82;21027;-73
2021/12/21 02:52:21;;;;;;;3.98;2.72;;;;;;;-0.77;76.77;99938.14;1708850;84;20904;-73
2021/12/21 02:54:48;;;;;;;2.80;2.60;;;;;;;-0.77;76.46;99944.12;1708859;84;21531;-73
2021/12/21 02:57:14;;;;;;;2.98;2.52;;;;;;;-0.80;76.29;99948.49;1708646;84;20967;-74
2021/12/21 02:59:41;;;;;;;3.22;2.62;;;;;;;-0.85;76.24;99964.05;1708752;84;20952;-73
2021/12/21 03:02:08;;;;;;;3.05;2.35;;;;;;;-0.90;76.38;99961.58;1708807;84;21023;-73
2021/12/21 03:04:35;;;;;;;2.52;1.95;;;;;;;-0.99;76.10;99963.09;1708772;84;20960;-73
2021/12/21 03:09:41;;;;;;;2.40;1.60;;;;;;;-1.25;76.08;99982.52;1708826;82;20897;-72
2021/12/21 03:12:28;;;;;;;2.67;2.47;;;;;;;-1.30;76.41;99980.94;1709049;84;20912;-74
2021/12/21 03:14:41;;;;;;;1.75;1.62;;;;;;;-1.34;76.48;99990.44;1743717;80;20901;-73
2021/12/21 03:17:10;;;;;;;2.12;1.70;;;;;;;-1.38;76.46;99989.25;1744532;80;20956;-73
2021/12/21 03:19:37;;;;;;;1.65;1.55;;;;;;;-1.46;76.65;99996.70;1744589;81;21475;-73
2021/12/21 03:22:04;;;;;;;2.45;2.02;;;;;;;-1.52;76.85;99999.83;1744580;82;20885;-73
2021/12/21 03:24:32;;;;;;;1.85;1.75;;;;;;;-1.59;77.16;99999.11;1744507;82;20924;-74
2021/12/21 03:26:59;;;;;;;5.55;1.30;;;;;;;-1.62;77.45;99997.03;1744434;82;20930;-74
2021/12/21 03:29:27;;;;;;;2.87;1.82;;;;;;;-1.70;77.64;100007.48;1744557;82;20885;-74
2021/12/21 03:31:54;;;;;;;2.67;2.17;;;;;;;-1.71;77.78;100013.06;1744801;82;21080;-72
2021/12/21 03:34:20;;;;;;;2.55;1.77;;;;;;;-1.70;77.83;100013.45;1744653;81;20937;-74
2021/12/21 03:36:47;;;;;;;1.60;1.27;;;;;;;-1.70;77.76;100017.76;1745016;81;20857;-74
2021/12/21 03:39:19;;;;;;;2.10;1.90;;;;;;;-1.72;77.79;100022.92;1744572;82;20897;-74
2021/12/21 03:41:53;;;;;;;2.12;1.52;;;;;;;-1.76;78.01;100017.88;1744871;80;20845;-74
2021/12/21 03:44:19;;;;;;;1.70;1.60;;;;;;;-1.76;78.14;100013.57;1708765;83;22071;-73
2021/12/21 03:46:47;;;;;;;2.02;1.77;;;;;;;-1.79;78.23;100016.21;1708922;84;20972;-74
2021/12/21 03:51:56;;;;;;;2.47;1.77;;;;;;;-1.85;78.27;100012.47;1709143;84;20948;-73
2021/12/21 03:54:23;;;;;;;1.90;1.77;;;;;;;-1.86;78.43;100014.64;1708812;82;20932;-76
2021/12/21 03:56:51;;;;;;;3.17;2.15;;;;;;;-1.85;78.44;100021.46;1709000;84;21128;-74
2021/12/21 03:59:19;;;;;;;5.53;2.47;;;;;;;-1.84;78.43;100025.74;1708747;82;21012;-74
2021/12/21 04:01:46;;;;;;;2.87;1.72;;;;;;;-1.85;78.30;100027.89;1709114;83;20931;-73
2021/12/21 04:04:17;;;;;;;2.27;1.95;;;;;;;-1.86;78.29;100030.06;1709034;84;20897;-73
2021/12/21 04:06:43;;;;;;;4.22;2.42;;;;;;;-1.88;78.31;100031.36;1709099;82;21381;-76
2021/12/21 04:09:09;;;;;;;3.62;2.12;;;;;;;-1.86;78.27;100039.50;1708778;84;21830;-72
2021/12/21 04:11:37;;;;;;;2.27;2.08;;;;;;;-1.85;78.23;100036.04;1708652;84;20896;-74
2021/12/21 04:14:04;;;;;;;3.35;2.45;;;;;;;-1.81;78.38;100035.11;1708853;84;21464;-73
2021/12/21 04:16:31;;;;;;;2.08;1.67;;;;;;;-1.78;78.13;100040.18;1708706;84;21026;-73
2021/12/21 04:18:58;;;;;;;4.00;2.08;;;;;;;-1.80;77.91;100041.52;1708791;84;20892;-75
2021/12/21 04:21:25;;;;;;;2.62;2.27;;;;;;;-1.79;77.90;100043.64;1708790;82;21136;-74
2021/12/21 04:23:52;;;;;;;2.50;1.85;;;;;;;-1.78;77.98;100047.89;1708664;82;20943;-76
2021/12/21 04:26:19;;;;;;;1.75;1.50;;;;;;;-1.75;77.98;100046.56;1708867;83;21472;-74
2021/12/21 04:28:46;;;;;;;3.50;2.12;;;;;;;-1.72;77.89;100048.62;1716383;83;20943;-76
2021/12/21 04:31:13;;;;;;;4.42;1.95;;;;;;;-1.70;77.96;100052.02;1716521;82;20888;-74
2021/12/21 04:33:42;;;;;;;2.30;2.00;;;;;;;-1.67;78.02;100058.40;1716366;83;21563;-74
2021/12/21 04:36:11;;;;;;;2.15;1.67;;;;;;;-1.63;77.89;100063.47;1716333;82;20973;-75
2021/12/21 04:38:43;;;;;;;2.00;1.60;;;;;;;-1.64;77.92;100057.94;1716437;83;20844;-75
2021/12/21 04:41:16;;;;;;;2.12;1.80;;;;;;;-1.61;78.06;100055.30;1715611;83;20940;-75
2021/12/21 04:43:42;;;;;;;2.50;2.20;;;;;;;-1.60;78.31;100048.84;1717327;82;20975;-75
2021/12/21 04:46:09;;;;;;;2.30;2.10;;;;;;;-1.55;78.23;100057.75;1719280;83;20983;-75
2021/12/21 04:48:36;;;;;;;2.05;1.95;;;;;;;-1.56;78.10;100060.73;1719230;82;20916;-74
2021/12/21 04:51:03;;;;;;;2.08;1.87;;;;;;;-1.56;78.07;100061.19;1718568;83;21011;-75
2021/12/21 04:53:32;;;;;;;2.08;1.80;;;;;;;-1.58;78.05;100070.23;1717090;82;20948;-73
2021/12/21 04:55:58;;;;;;;3.22;2.15;;;;;;;-1.57;78.03;100074.93;1716872;83;20904;-76
2021/12/21 04:58:26;;;;;;;2.65;2.10;;;;;;;-1.56;77.92;100081.31;1716800;83;21146;-73
2021/12/21 05:00:52;;;;;;;2.72;2.02;;;;;;;-1.58;77.72;100083.50;1716704;83;21433;-74
2021/12/21 05:03:19;;;;;;;1.77;1.65;;;;;;;-1.63;77.67;100078.90;1716491;83;21378;-75
2021/12/21 05:05:48;;;;;;;2.12;1.92;;;;;;;-1.63;77.69;100086.16;1716410;83;21019;-72
2021/12/21 05:08:23;;;;;;;1.42;1.32;;;;;;;-1.64;77.42;100090.06;1716691;83;20927;-73
2021/12/21 05:10:52;;;;;;;1.52;1.42;;;;;;;-1.66;77.48;100099.09;1715734;83;21331;-73
2021/12/21 05:13:23;;;;;;;2.25;1.72;;;;;;;-1.66;77.49;100113.22;1716566;83;20928;-73
2021/12/21 05:15:50;;;;;;;1.90;1.62;;;;;;;-1.68;77.54;100120.11;1716406;83;20924;-75
2021/12/21 05:18:18;;;;;;;1.62;1.52;;;;;;;-1.68;77.58;100117.55;1716322;82;20884;-74
2021/12/21 05:20:45;;;;;;;3.72;2.20;;;;;;;-1.66;77.75;100128.64;1716447;83;21418;-74
2021/12/21 05:23:12;;;;;;;2.25;2.00;;;;;;;-1.61;77.80;100134.55;1716569;83;21157;-80
2021/12/21 05:25:41;;;;;;;2.35;1.60;;;;;;;-1.57;77.70;100132.78;1716375;82;20970;-84
2021/12/21 05:28:11;;;;;;;2.37;2.17;;;;;;;-1.56;77.50;100129.31;1712228;82;21015;-83
2021/12/21 05:30:40;;;;;;;2.83;2.22;;;;;;;-1.58;77.38;100128.49;1709165;84;21308;-85
2021/12/21 05:33:07;;;;;;;2.77;2.08;;;;;;;-1.58;77.41;100134.51;1711718;84;20974;-84
2021/12/21 05:35:34;;;;;;;2.72;2.05;;;;;;;-1.57;77.39;100145.19;1712247;81;21106;-85
2021/12/21 05:38:04;;;;;;;2.83;2.17;;;;;;;-1.57;77.38;100140.05;1712234;81;20894;-83
2021/12/21 05:40:44;;;;;;;2.02;1.92;;;;;;;-1.53;77.48;100141.69;1712135;81;21062;-81
2021/12/21 05:43:12;;;;;;;2.72;2.08;;;;;;;-1.50;77.42;100144.64;1709709;81;21383;-85
2021/12/21 05:45:38;;;;;;;2.15;1.85;;;;;;;-1.50;77.21;100153.20;1709467;83;20928;-85
2021/12/21 05:48:06;;;;;;;3.20;2.30;;;;;;;-1.50;77.06;100156.21;1710027;84;21177;-88
2021/12/21 05:50:33;;;;;;;2.83;2.12;;;;;;;-1.51;77.03;100157.10;1709926;82;20951;-86
2021/12/21 05:53:02;;;;;;;2.65;2.45;;;;;;;-1.52;77.00;100157.52;1681902;84;20876;-86
2021/12/21 05:55:29;;;;;;;5.20;2.67;;;;;;;-1.50;77.25;100158.34;1709884;84;20956;-86
2021/12/21 05:57:56;;;;;;;3.27;2.90;;;;;;;-1.42;77.29;100171.07;1710039;83;20912;-85
2021/12/21 06:00:26;;;;;;;3.33;2.35;;;;;;;-1.39;77.21;100165.86;1710332;82;21168;-81
2021/12/21 06:02:53;;;;;;;4.05;2.75;;;;;;;-1.32;77.14;100171.30;1710193;82;20967;-81
2021/12/21 06:05:23;;;;;;;3.40;2.55;;;;;;;-1.30;76.81;100179.83;1709799;84;20940;-83
2021/12/21 06:07:53;;;;;;;3.98;2.35;;;;;;;-1.30;76.70;100181.56;1709567;83;21480;-82
2021/12/21 06:10:29;;;;;;;2.87;2.30;;;;;;;-1.30;76.68;100187.55;1709124;84;20979;-81
2021/12/21 06:13:16;;;;;;;2.83;1.95;;;;;;;-1.27;76.64;100189.21;1708401;83;20940;-85
2021/12/21 06:26:16;;;;;;;3.50;2.60;;;;;;;-1.41;76.09;100202.77;1709270;84;21153;-83
2021/12/21 06:28:46;;;;;;;3.35;2.83;;;;;;;-1.50;76.32;100205.91;1714686;82;20932;-74
2021/12/21 06:31:14;;;;;;;4.12;2.95;;;;;;;-1.53;76.67;100205.12;1716604;82;20908;-75
2021/12/21 06:33:41;;;;;;;4.70;3.00;;;;;;;-1.54;76.75;100208.11;1716861;83;21362;-74
2021/12/21 06:36:09;;;;;;;3.50;3.10;;;;;;;-1.51;77.10;100215.80;1716505;83;20860;-73
2021/12/21 06:38:35;;;;;;;2.83;2.60;;;;;;;-1.48;77.00;100208.02;1716721;83;21150;-75
2021/12/21 06:41:02;;;;;;;3.67;2.95;;;;;;;-1.44;77.29;100206.70;1716381;83;20932;-73
2021/12/21 06:43:31;;;;;;;4.40;2.92;;;;;;;-1.32;77.53;100201.32;1716765;82;21568;-74
2021/12/21 06:46:14;;;;;;;5.42;3.83;;;;;;;-1.22;77.30;100203.27;1716536;83;20896;-72
2021/12/21 06:51:31;;;;;;;4.72;3.40;;;;;;;-1.16;76.94;100206.58;1716559;83;21087;-74
2021/12/21 06:53:52;;;;;;;3.45;2.52;;;;;;;-1.17;76.86;100210.05;1689082;83;20947;-72
2021/12/21 06:56:21;;;;;;;2.33;2.00;;;;;;;-1.12;76.85;100217.67;1716486;82;20959;-75
2021/12/21 06:58:48;;;;;;;4.08;2.90;;;;;;;-1.11;76.69;100224.09;1716410;83;21377;-73
2021/12/21 07:01:15;;;;;;;2.45;2.20;;;;;;;-1.09;76.59;100229.19;1716504;83;20928;-72
2021/12/21 07:03:43;;;;;;;3.70;2.65;;;;;;;-1.11;76.75;100233.09;1716479;83;21162;-73
2021/12/21 07:06:10;;;;;;;2.80;2.45;;;;;;;-1.09;76.68;100242.05;1716341;83;20978;-74
2021/12/21 07:08:55;;;;;;;4.15;3.02;;;;;;;-1.14;76.72;100242.13;1716457;83;20920;-74
2021/12/21 07:19:29;;;;;;;;;;;;;;;-1.16;76.71;100255.46;1718211;83;20979;-75
2021/12/21 07:21:56;;;;;;;3.10;2.67;;;;;;;-1.18;76.75;100258.50;1717975;83;20144;-75
2021/12/21 07:24:23;;;;;;;4.33;3.25;;;;;;;-1.17;76.81;100261.94;1690764;83;20996;-73
2021/12/21 07:26:50;;;;;;;4.20;2.90;;;;;;;-1.13;77.16;100254.59;1690896;85;20976;-73
2021/12/21 07:29:17;;;;;;;4.55;3.25;;;;;;;-1.11;76.81;100256.25;1685326;84;21154;-75
2021/12/21 07:31:45;;;;;;;3.50;3.20;;;;;;;-1.11;76.58;100253.67;1711349;82;20904;-74
2021/12/21 07:34:12;;;;;;;3.25;2.90;;;;;;;-1.13;76.61;100254.14;1701641;83;20960;-75
2021/12/21 07:36:42;;;;;;;3.52;3.12;;;;;;;-1.06;76.55;100257.45;1711285;82;21024;-75
2021/12/21 07:39:13;;;;;;;3.95;3.52;;;;;;;-0.98;76.69;100254.72;1701751;84;21589;-75
2021/12/21 07:41:41;;;;;;;3.22;2.80;;;;;;;-0.92;76.42;100259.31;1711127;82;21082;-75
2021/12/21 07:44:09;;;;;;;4.08;3.22;;;;;;;-0.87;76.38;100270.40;1701569;84;20975;-73
2021/12/21 07:46:36;;;;;;;3.90;3.17;;;;;;;-0.79;76.39;100265.09;1711448;82;20864;-76
2021/12/21 07:49:04;;;;;;;3.80;3.12;;;;;;;-0.68;76.41;100258.00;1701622;84;20999;-75
2021/12/21 07:51:31;;;;;;;4.60;3.33;;;;;;;-0.53;76.08;100263.75;1711362;82;21004;-74
2021/12/21 07:53:59;;;;;;;3.45;3.10;;;;;;;-0.46;75.46;100270.02;1701774;84;21573;-74
2021/12/21 07:56:25;;;;;;;7.78;3.00;;;;;;;-0.39;75.19;100275.89;1711316;82;20999;-73
2021/12/21 07:58:53;;;;;;;4.05;3.00;;;;;;;-0.31;74.73;100283.45;1701706;84;20952;-82
2021/12/21 08:01:21;;;;;;;3.02;2.75;;;;;;;-0.27;74.23;100284.67;1711612;82;21485;-82
2021/12/21 08:03:49;;;;;;;3.33;3.00;;;;;;;-0.24;73.97;100283.75;1701881;84;21039;-81
2021/12/21 08:06:16;;;;;;;5.00;3.70;;;;;;;-0.21;73.82;100290.95;1711396;82;21146;-82
2021/12/21 08:08:45;;;;;;;3.95;3.52;;;;;;;-0.17;73.46;100288.33;1701570;83;21494;-83
2021/12/21 08:12:10;;;;;;;4.37;3.58;;;;;;;-0.18;72.79;100287.91;1711403;82;21452;-83
2021/12/21 08:13:47;;;;;;;4.22;3.37;;;;;;;-0.25;72.93;100288.03;1701306;84;20920;-84
2021/12/21 08:16:14;;;;;;;4.78;3.98;;;;;;;-0.27;72.69;100291.11;1711493;82;20928;-85
2021/12/21 08:18:41;;;;;;;6.92;4.50;;;;;;;-0.27;72.40;100288.95;1701790;83;21866;-83
2021/12/21 08:21:11;;;;;;;5.80;4.30;;;;;;;-0.31;72.17;100291.17;1711627;82;20935;-84
2021/12/21 08:23:38;;;;;;;5.83;4.75;;;;;;;-0.32;72.27;100285.63;1701873;84;21468;-83
2021/12/21 08:26:06;;;;;;;5.92;4.50;;;;;;;-0.40;71.83;100293.94;1711354;83;20916;-82
2021/12/21 08:28:33;;;;;;;5.00;4.08;;;;;;;-0.49;71.87;100295.84;1701565;83;21481;-82
2021/12/21 08:31:01;;;;;;;5.87;4.60;;;;;;;-0.55;71.91;100298.98;1711627;82;21791;-81
2021/12/21 08:33:29;;;;;;;6.55;4.55;;;;;;;-0.63;71.64;100296.53;1701714;84;20970;-80
2021/12/21 08:35:55;;;;;;;5.10;4.60;;;;;;;-0.71;71.89;100297.11;1711535;82;20924;-82
2021/12/21 08:38:24;;;;;;;5.22;4.45;;;;;;;-0.74;72.00;100294.16;1701694;84;20923;-82
2021/12/21 08:40:53;;;;;;;5.87;4.45;;;;;;;-0.75;72.27;100297.63;1711426;82;20975;-81
2021/12/21 08:43:26;;;;;;;6.17;4.28;;;;;;;-0.71;72.43;100298.40;1701906;84;21136;-83
2021/12/21 08:45:55;;;;;;;5.42;4.47;;;;;;;-0.67;72.35;100298.75;1711560;82;20904;-82
2021/12/21 08:48:22;;;;;;;4.47;3.75;;;;;;;-0.65;71.81;100299.58;1701576;83;20971;-83
2021/12/21 08:50:50;;;;;;;5.70;4.75;;;;;;;-0.74;71.48;100297.18;1711426;82;21497;-81
2021/12/21 08:53:17;;;;;;;6.35;4.75;;;;;;;-0.85;71.68;100303.36;1701729;84;20928;-83
2021/12/21 08:55:44;;;;;;;5.28;4.70;;;;;;;-0.88;72.12;100299.57;1711558;82;21781;-81
2021/12/21 08:58:11;;;;;;;6.05;4.78;;;;;;;-0.82;72.11;100303.77;1701838;84;21505;-83
2021/12/21 09:00:38;;;;;;;6.83;5.03;;;;;;;-0.77;71.87;100303.69;1711436;82;20907;-73
2021/12/21 09:03:05;;;;;;;6.85;5.25;;;;;;;-0.75;71.39;100310.95;1701645;84;21084;-77
2021/12/21 09:05:33;;;;;;;6.87;5.78;;;;;;;-0.75;71.42;100313.52;1711481;82;20975;-75
2021/12/21 09:08:01;;;;;;;6.67;5.28;;;;;;;-0.72;71.14;100319.44;1701774;83;21117;-73
2021/12/21 09:10:29;;;;;;;5.92;4.83;;;;;;;-0.69;71.06;100318.53;1711520;82;20939;-73
2021/12/21 09:12:56;;;;;;;6.47;5.17;;;;;;;-0.60;70.97;100311.95;1701582;84;20940;-74
2021/12/21 09:15:25;;;;;;;7.15;5.33;;;;;;;-0.53;70.65;100304.51;1711552;83;20967;-73
2021/12/21 09:17:53;;;;;;;17.67;10.10;;;;;;;-0.40;70.72;100301.25;1701699;84;21473;-74
2021/12/21 09:20:22;;;;;;;11.65;8.43;;;;;;;-0.26;70.11;100303.09;1711542;82;21108;-73
2021/12/21 09:22:49;;;;;;;7.03;4.78;;;;;;;-0.19;69.78;100297.38;1701332;84;20967;-74
2021/12/21 09:25:16;;;;;;;6.75;4.55;;;;;;;-0.13;69.16;100295.97;1713034;82;20880;-73
2021/12/21 09:27:45;;;;;;;5.58;4.55;;;;;;;-0.15;69.27;100296.44;1704642;81;21000;-73
2021/12/21 09:30:14;;;;;;;7.30;5.42;;;;;;;-0.11;69.20;100301.06;1724111;77;20907;-74
2021/12/21 09:32:41;;;;;;;6.67;5.47;;;;;;;-0.11;68.87;100313.95;1696193;83;21107;-73
2021/12/21 09:35:08;;;;;;;7.28;5.75;;;;;;;-0.09;68.76;100313.06;1696557;83;20891;-74
2021/12/21 09:37:35;;;;;;;5.33;4.53;;;;;;;-0.10;68.76;100311.35;1695756;83;20908;-74
2021/12/21 09:40:04;;;;;;;5.35;4.45;;;;;;;-0.08;68.49;100316.03;1696248;79;20983;-73
2021/12/21 09:43:32;;;;;;;6.87;4.67;;;;;;;-0.13;68.33;100308.01;1873204;76;22390;-74
2021/12/21 09:45:59;;;;;;;4.37;3.75;;;;;;;-0.28;68.23;100309.17;1829846;78;20908;-74
2021/12/21 09:48:28;;;;;;;6.53;4.35;;;;;;;-0.39;68.21;100308.53;1808575;78;21070;-73
2021/12/21 09:50:55;;;;;;;9.65;8.45;;;;;;;-0.50;68.13;100312.61;1828366;78;20833;-73
2021/12/21 09:53:23;;;;;;;11.00;8.48;;;;;;;-0.61;68.68;100314.09;1828606;78;20868;-74
2021/12/21 09:55:50;;;;;;;7.95;5.15;;;;;;;-0.64;68.82;100311.59;1828231;78;20960;-75
2021/12/21 09:58:17;;;;;;;4.83;3.20;;;;;;;-0.73;68.51;100316.47;1828889;78;20895;-74
2021/12/21 10:00:44;;;;;;;3.95;3.10;;;;;;;-0.87;68.59;100324.45;1828449;78;21322;-74
2021/12/21 10:03:11;;;;;;;3.72;3.35;;;;;;;-0.99;68.73;100328.52;1828670;78;20856;-74
2021/12/21 10:05:41;;;;;;;4.33;3.47;;;;;;;-1.09;69.38;100329.53;1828593;78;20924;-73
2021/12/21 10:08:15;;;;;;;5.40;4.90;;;;;;;-1.08;69.82;100332.53;1828773;78;21460;-75
2021/12/21 10:10:47;;;;;;;6.97;5.37;;;;;;;-1.06;69.96;100332.08;1827902;78;20914;-77
2021/12/21 10:13:22;;;;;;;4.47;2.98;;;;;;;-0.98;70.24;100331.93;1828326;78;21760;-75
2021/12/21 10:15:52;;;;;;;2.67;2.47;;;;;;;-0.98;69.91;100327.63;1827568;78;21368;-73
2021/12/21 10:18:28;;;;;;;2.77;2.15;;;;;;;-1.01;69.95;100328.13;1827653;77;21405;-75
2021/12/21 10:20:58;;;;;;;1.87;1.65;;;;;;;-1.04;69.66;100335.47;1827599;78;20895;-75
2021/12/21 10:23:36;;;;;;;2.00;1.87;;;;;;;-1.15;69.48;100338.22;1827852;78;20852;-74
2021/12/21 10:26:10;;;;;;;2.25;1.32;;;;;;;-1.22;69.70;100335.75;1827637;78;21827;-74
2021/12/21 10:28:49;;;;;;;1.60;1.50;;;;;;;-1.30;69.62;100338.47;1828150;78;20982;-75
2021/12/21 10:31:32;;;;;;;1.47;1.37;;;;;;;-1.38;68.95;100345.03;1827618;78;21385;-74
2021/12/21 10:34:01;;;;;;;2.10;1.60;;;;;;;-1.61;68.83;100347.08;1827893;78;21432;-76
2021/12/21 10:36:29;;;;;;;1.98;0.95;;;;;;;-1.76;68.85;100350.70;1827677;77;20864;-74
2021/12/21 10:39:01;;;;;;;2.08;1.15;;;;;;;-1.85;68.08;100351.68;1827563;78;21381;-74
2021/12/21 10:41:39;;;;;;;1.70;1.60;;;;;;;-1.92;67.90;100347.50;1827647;77;21006;-75
2021/12/21 10:44:08;;;;;;;3.50;3.20;;;;;;;-1.98;67.93;100349.73;1833962;78;21267;-73
2021/12/21 10:46:38;;;;;;;3.30;1.75;;;;;;;-1.99;67.90;100352.31;1833664;78;20840;-74
2021/12/21 10:49:18;;;;;;;2.33;1.75;;;;;;;-2.01;67.97;100355.33;1833690;77;20872;-73
2021/12/21 10:52:05;;;;;;;4.47;3.08;;;;;;;-1.99;67.94;100350.59;1833713;77;20933;-74
2021/12/21 10:54:46;;;;;;;3.40;2.45;;;;;;;-1.98;67.85;100350.14;1833310;78;21425;-74
2021/12/21 10:57:24;;;;;;;9.13;4.50;;;;;;;-1.94;67.93;100354.38;1833102;77;20871;-74
2021/12/21 10:59:53;;;;;;;4.45;2.27;;;;;;;-1.84;67.53;100350.83;1833230;78;20962;-72
2021/12/21 11:02:30;;;;;;;5.10;3.00;;;;;;;-1.76;67.45;100355.41;1833061;78;20923;-73
2021/12/21 11:05:06;;;;;;;4.47;2.65;;;;;;;-1.71;66.40;100356.66;1833075;77;21154;-74
2021/12/21 11:10:14;;;;;;;1.10;0.90;;;;;;;-1.76;65.93;100360.99;1833372;78;20931;-72
2021/12/21 11:12:45;;;;;;;1.50;1.40;;;;;;;-1.82;65.99;100359.78;1833119;78;20908;-73
2021/12/21 11:15:17;;;;;;;12.23;6.05;;;;;;;-1.89;66.25;100365.03;1833134;77;20860;-73
2021/12/21 11:17:45;;;;;;;6.33;3.20;;;;;;;-1.91;66.56;100384.75;1832546;77;21832;-74
2021/12/21 11:20:15;;;;;;;2.72;1.70;;;;;;;-1.92;66.50;100373.20;1833152;77;20899;-73
2021/12/21 11:22:44;;;;;;;1.52;1.20;;;;;;;-1.97;66.51;100375.83;1833080;78;21006;-74
2021/12/21 11:25:12;;;;;;;2.42;1.40;;;;;;;-2.00;66.77;100381.43;1833370;78;20970;-75
2021/12/21 11:27:42;;;;;;;2.15;1.72;;;;;;;-2.01;66.94;100372.87;1833424;78;20931;-72
2021/12/21 11:30:12;;;;;;;2.98;2.27;;;;;;;-2.01;66.94;100383.59;1833059;77;21072;-74
2021/12/21 11:32:44;;;;;;;1.62;0.93;;;;;;;-2.00;66.84;100376.29;1833418;78;20931;-75
2021/12/21 11:37:40;;;;;;;2.05;1.75;;;;;;;-2.04;67.02;100382.36;1833318;77;20908;-74
2021/12/21 11:40:13;;;;;;;2.12;1.52;;;;;;;-2.06;67.04;100389.23;1833188;77;20876;-74
2021/12/21 11:42:54;;;;;;;3.05;1.90;;;;;;;-2.09;66.76;100392.25;1830632;76;21806;-74
2021/12/21 11:45:41;;;;;;;3.47;2.72;;;;;;;-2.15;66.92;100397.90;1827134;78;20869;-73
2021/12/21 11:48:13;;;;;;;3.00;1.85;;;;;;;-2.23;67.00;100404.83;1827087;78;20860;-74
2021/12/21 11:50:43;;;;;;;4.00;2.87;;;;;;;-2.32;67.35;100402.77;1798619;77;21107;-74
2021/12/21 11:53:14;;;;;;;10.28;4.70;;;;;;;-2.38;67.49;100403.27;1826877;77;22645;-74
2021/12/21 11:55:44;;;;;;;10.08;6.15;;;;;;;-2.42;67.71;100409.29;1827065;78;21120;-74
2021/12/21 11:58:32;;;;;;;6.10;4.90;;;;;;;-2.50;68.03;100420.94;1826854;77;20970;-74
2021/12/21 12:01:09;;;;;;;2.92;2.72;;;;;;;-2.56;68.22;100414.13;1826954;78;20908;-77
2021/12/21 12:03:38;;;;;;;6.78;5.05;;;;;;;-2.58;68.24;100418.86;1826313;77;21505;-76
2021/12/21 12:06:07;;;;;;;2.85;2.55;;;;;;;-2.61;68.54;100415.05;1827013;78;20935;-77
2021/12/21 12:08:45;;;;;;;2.77;1.95;;;;;;;-2.63;68.21;100419.34;1827331;78;21110;-77
2021/12/21 12:11:39;;;;;;;1.42;1.32;;;;;;;-2.74;68.31;100423.30;1827134;78;20903;-77
2021/12/21 12:14:12;;;;;;;2.25;1.77;;;;;;;-2.81;68.55;100425.50;1827270;78;21358;-79
2021/12/21 12:16:43;;;;;;;3.73;2.50;;;;;;;-2.82;68.35;100423.37;1827336;77;21452;-78
2021/12/21 12:19:14;;;;;;;6.08;5.35;;;;;;;-2.89;68.63;100426.86;1826354;77;21452;-76
2021/12/21 12:21:57;;;;;;;6.70;4.70;;;;;;;-2.95;68.88;100433.31;1826508;78;21124;-82
2021/12/21 12:24:34;;;;;;;2.85;2.60;;;;;;;-2.96;69.07;100443.13;1827209;78;20872;-77
2021/12/21 12:27:16;;;;;;;3.37;2.12;;;;;;;-3.00;69.02;100441.45;1813707;78;20985;-76
2021/12/21 12:29:56;;;;;;;1.90;1.55;;;;;;;-3.07;68.94;100459.03;1826639;77;20852;-77
2021/12/21 12:32:38;;;;;;;1.62;1.37;;;;;;;-3.17;68.76;100459.10;1832357;78;20895;-75
2021/12/21 12:35:31;;;;;;;1.87;1.72;;;;;;;-3.19;68.67;100452.28;1826300;78;21777;-78
2021/12/21 12:38:18;;;;;;;2.98;2.05;;;;;;;-3.21;68.55;100459.98;1824882;77;21005;-75
2021/12/21 12:40:56;;;;;;;5.78;1.50;;;;;;;-3.24;68.70;100466.42;1826617;78;21018;-79